sensor_id;sensor_type;location;lat;lon;timestamp;P1;durP1;ratioP1;P2;durP2;ratioP2
26062;SDS011;13837;48.562;12.108;2023-09-18T00:00:01;10.50;;;9.60;;
26062;SDS011;13837;48.562;12.108;2023-09-18T00:02:33;10.82;;;9.73;;
26062;SDS011;13837;48.562;12.108;2023-09-18T00:04:58;12.93;;;11.02;;
26062;SDS011;13837;48.562;12.108;2023-09-18T00:07:24;11.40;;;10.30;;
26062;SDS011;13837;48.562;12.108;2023-09-18T00:09:50;10.63;;;9.63;;
26062;SDS011;13837;48.562;12.108;2023-09-18T00:12:16;11.48;;;10.38;;
26062;SDS011;13837;48.562;12.108;2023-09-18T00:14:42;10.73;;;9.68;;
26062;SDS011;13837;48.562;12.108;2023-09-18T00:17:08;10.77;;;9.88;;
26062;SDS011;13837;48.562;12.108;2023-09-18T00:19:34;11.82;;;10.38;;
26062;SDS011;13837;48.562;12.108;2023-09-18T00:21:59;11.70;;;10.63;;
26062;SDS011;13837;48.562;12.108;2023-09-18T00:24:26;11.05;;;10.05;;
26062;SDS011;13837;48.562;12.108;2023-09-18T00:26:52;11.70;;;10.60;;
26062;SDS011;13837;48.562;12.108;2023-09-18T00:29:19;11.40;;;10.40;;
26062;SDS011;13837;48.562;12.108;2023-09-18T00:31:45;11.75;;;10.65;;
26062;SDS011;13837;48.562;12.108;2023-09-18T00:34:10;11.65;;;10.65;;
26062;SDS011;13837;48.562;12.108;2023-09-18T00:36:36;11.82;;;10.55;;
26062;SDS011;13837;48.562;12.108;2023-09-18T00:39:03;13.13;;;10.98;;
26062;SDS011;13837;48.562;12.108;2023-09-18T00:41:30;13.52;;;12.13;;
26062;SDS011;13837;48.562;12.108;2023-09-18T00:43:55;12.55;;;11.27;;
26062;SDS011;13837;48.562;12.108;2023-09-18T00:46:21;12.82;;;11.60;;
26062;SDS011;13837;48.562;12.108;2023-09-18T00:48:48;12.98;;;11.60;;
26062;SDS011;13837;48.562;12.108;2023-09-18T00:51:15;12.30;;;11.18;;
26062;SDS011;13837;48.562;12.108;2023-09-18T00:53:43;12.88;;;11.50;;
26062;SDS011;13837;48.562;12.108;2023-09-18T00:56:10;12.07;;;11.00;;
26062;SDS011;13837;48.562;12.108;2023-09-18T00:58:37;12.82;;;11.52;;
26062;SDS011;13837;48.562;12.108;2023-09-18T01:01:03;12.35;;;11.15;;
26062;SDS011;13837;48.562;12.108;2023-09-18T01:03:29;11.32;;;10.32;;
26062;SDS011;13837;48.562;12.108;2023-09-18T01:05:55;11.95;;;10.63;;
26062;SDS011;13837;48.562;12.108;2023-09-18T01:08:22;11.23;;;10.13;;
26062;SDS011;13837;48.562;12.108;2023-09-18T01:10:53;11.43;;;10.32;;
26062;SDS011;13837;48.562;12.108;2023-09-18T01:13:51;10.52;;;9.63;;
26062;SDS011;13837;48.562;12.108;2023-09-18T01:16:27;11.07;;;9.98;;
26062;SDS011;13837;48.562;12.108;2023-09-18T01:18:57;11.55;;;10.35;;
26062;SDS011;13837;48.562;12.108;2023-09-18T01:21:24;10.82;;;9.82;;
26062;SDS011;13837;48.562;12.108;2023-09-18T01:23:50;12.73;;;10.50;;
26062;SDS011;13837;48.562;12.108;2023-09-18T01:26:16;11.30;;;10.23;;
26062;SDS011;13837;48.562;12.108;2023-09-18T01:28:42;11.50;;;10.43;;
26062;SDS011;13837;48.562;12.108;2023-09-18T01:31:08;11.35;;;10.25;;
26062;SDS011;13837;48.562;12.108;2023-09-18T01:33:33;11.25;;;10.18;;
26062;SDS011;13837;48.562;12.108;2023-09-18T01:36:01;10.75;;;9.70;;
26062;SDS011;13837;48.562;12.108;2023-09-18T01:38:27;12.05;;;10.98;;
26062;SDS011;13837;48.562;12.108;2023-09-18T01:40:54;11.73;;;10.52;;
26062;SDS011;13837;48.562;12.108;2023-09-18T01:43:19;12.35;;;11.00;;
26062;SDS011;13837;48.562;12.108;2023-09-18T01:45:45;13.32;;;12.02;;
26062;SDS011;13837;48.562;12.108;2023-09-18T01:48:13;13.52;;;12.13;;
26062;SDS011;13837;48.562;12.108;2023-09-18T01:50:38;13.40;;;12.00;;
26062;SDS011;13837;48.562;12.108;2023-09-18T01:53:07;13.35;;;12.05;;
26062;SDS011;13837;48.562;12.108;2023-09-18T01:55:33;13.65;;;12.35;;
26062;SDS011;13837;48.562;12.108;2023-09-18T01:57:59;13.02;;;11.90;;
26062;SDS011;13837;48.562;12.108;2023-09-18T02:00:24;12.90;;;11.63;;
26062;SDS011;13837;48.562;12.108;2023-09-18T02:02:52;12.77;;;11.48;;
26062;SDS011;13837;48.562;12.108;2023-09-18T02:05:18;12.88;;;11.60;;
26062;SDS011;13837;48.562;12.108;2023-09-18T02:07:44;12.90;;;11.70;;
26062;SDS011;13837;48.562;12.108;2023-09-18T02:10:10;13.73;;;12.32;;
26062;SDS011;13837;48.562;12.108;2023-09-18T02:12:38;13.32;;;12.05;;
26062;SDS011;13837;48.562;12.108;2023-09-18T02:15:08;13.75;;;12.35;;
26062;SDS011;13837;48.562;12.108;2023-09-18T02:17:36;14.00;;;12.70;;
26062;SDS011;13837;48.562;12.108;2023-09-18T02:20:02;15.45;;;13.82;;
26062;SDS011;13837;48.562;12.108;2023-09-18T02:22:33;14.85;;;13.27;;
26062;SDS011;13837;48.562;12.108;2023-09-18T02:24:59;14.45;;;13.05;;
26062;SDS011;13837;48.562;12.108;2023-09-18T02:27:26;14.23;;;12.95;;
26062;SDS011;13837;48.562;12.108;2023-09-18T02:29:52;13.90;;;12.55;;
26062;SDS011;13837;48.562;12.108;2023-09-18T02:32:18;13.95;;;12.18;;
26062;SDS011;13837;48.562;12.108;2023-09-18T02:34:44;13.50;;;12.23;;
26062;SDS011;13837;48.562;12.108;2023-09-18T02:37:10;13.43;;;12.18;;
26062;SDS011;13837;48.562;12.108;2023-09-18T02:39:35;13.82;;;12.43;;
26062;SDS011;13837;48.562;12.108;2023-09-18T02:42:01;13.18;;;11.98;;
26062;SDS011;13837;48.562;12.108;2023-09-18T02:44:27;13.63;;;12.25;;
26062;SDS011;13837;48.562;12.108;2023-09-18T02:46:53;12.52;;;11.40;;
26062;SDS011;13837;48.562;12.108;2023-09-18T02:49:18;13.88;;;12.43;;
26062;SDS011;13837;48.562;12.108;2023-09-18T02:51:45;13.95;;;12.13;;
26062;SDS011;13837;48.562;12.108;2023-09-18T02:54:11;12.65;;;11.40;;
26062;SDS011;13837;48.562;12.108;2023-09-18T02:56:37;13.82;;;11.80;;
26062;SDS011;13837;48.562;12.108;2023-09-18T02:59:03;13.95;;;12.18;;
26062;SDS011;13837;48.562;12.108;2023-09-18T03:01:28;12.52;;;11.32;;
26062;SDS011;13837;48.562;12.108;2023-09-18T03:03:54;13.40;;;12.10;;
26062;SDS011;13837;48.562;12.108;2023-09-18T03:06:20;13.85;;;12.45;;
26062;SDS011;13837;48.562;12.108;2023-09-18T03:08:49;12.30;;;11.02;;
26062;SDS011;13837;48.562;12.108;2023-09-18T03:11:16;12.60;;;11.40;;
26062;SDS011;13837;48.562;12.108;2023-09-18T03:13:46;13.40;;;11.25;;
26062;SDS011;13837;48.562;12.108;2023-09-18T03:16:13;13.00;;;11.57;;
26062;SDS011;13837;48.562;12.108;2023-09-18T03:18:40;13.10;;;11.80;;
26062;SDS011;13837;48.562;12.108;2023-09-18T03:21:06;13.45;;;12.25;;
26062;SDS011;13837;48.562;12.108;2023-09-18T03:23:31;13.82;;;12.23;;
26062;SDS011;13837;48.562;12.108;2023-09-18T03:25:57;13.98;;;11.68;;
26062;SDS011;13837;48.562;12.108;2023-09-18T03:28:25;12.82;;;11.68;;
26062;SDS011;13837;48.562;12.108;2023-09-18T03:30:51;12.60;;;11.40;;
26062;SDS011;13837;48.562;12.108;2023-09-18T03:35:50;13.90;;;12.60;;
26062;SDS011;13837;48.562;12.108;2023-09-18T03:38:21;14.23;;;12.82;;
26062;SDS011;13837;48.562;12.108;2023-09-18T03:40:47;15.43;;;13.73;;
26062;SDS011;13837;48.562;12.108;2023-09-18T03:43:12;15.45;;;13.95;;
26062;SDS011;13837;48.562;12.108;2023-09-18T03:45:38;15.93;;;14.32;;
26062;SDS011;13837;48.562;12.108;2023-09-18T03:48:07;16.08;;;14.48;;
26062;SDS011;13837;48.562;12.108;2023-09-18T03:50:32;15.68;;;14.07;;
26062;SDS011;13837;48.562;12.108;2023-09-18T03:52:58;15.18;;;13.57;;
26062;SDS011;13837;48.562;12.108;2023-09-18T03:55:24;15.63;;;14.07;;
26062;SDS011;13837;48.562;12.108;2023-09-18T03:57:51;15.25;;;13.70;;
26062;SDS011;13837;48.562;12.108;2023-09-18T04:00:17;16.10;;;14.52;;
26062;SDS011;13837;48.562;12.108;2023-09-18T04:02:43;15.35;;;13.85;;
26062;SDS011;13837;48.562;12.108;2023-09-18T04:05:09;15.70;;;14.10;;
26062;SDS011;13837;48.562;12.108;2023-09-18T04:07:35;15.20;;;13.65;;
26062;SDS011;13837;48.562;12.108;2023-09-18T04:10:00;15.40;;;13.90;;
26062;SDS011;13837;48.562;12.108;2023-09-18T04:12:26;15.20;;;12.95;;
26062;SDS011;13837;48.562;12.108;2023-09-18T04:14:52;14.75;;;13.35;;
26062;SDS011;13837;48.562;12.108;2023-09-18T04:17:17;15.23;;;13.75;;
26062;SDS011;13837;48.562;12.108;2023-09-18T04:19:43;15.48;;;13.75;;
26062;SDS011;13837;48.562;12.108;2023-09-18T04:22:09;16.25;;;14.65;;
26062;SDS011;13837;48.562;12.108;2023-09-18T04:24:35;15.38;;;13.95;;
26062;SDS011;13837;48.562;12.108;2023-09-18T04:27:02;18.48;;;14.38;;
26062;SDS011;13837;48.562;12.108;2023-09-18T04:29:28;15.52;;;14.02;;
26062;SDS011;13837;48.562;12.108;2023-09-18T04:31:54;16.50;;;14.90;;
26062;SDS011;13837;48.562;12.108;2023-09-18T04:34:20;16.13;;;14.52;;
26062;SDS011;13837;48.562;12.108;2023-09-18T04:36:47;15.50;;;14.00;;
26062;SDS011;13837;48.562;12.108;2023-09-18T04:39:13;15.93;;;14.07;;
26062;SDS011;13837;48.562;12.108;2023-09-18T04:41:39;13.68;;;12.27;;
26062;SDS011;13837;48.562;12.108;2023-09-18T04:44:05;13.55;;;12.32;;
26062;SDS011;13837;48.562;12.108;2023-09-18T04:46:33;12.77;;;11.57;;
26062;SDS011;13837;48.562;12.108;2023-09-18T04:49:00;13.02;;;11.82;;
26062;SDS011;13837;48.562;12.108;2023-09-18T04:51:30;13.25;;;11.98;;
26062;SDS011;13837;48.562;12.108;2023-09-18T04:53:58;14.05;;;11.45;;
26062;SDS011;13837;48.562;12.108;2023-09-18T04:56:24;13.57;;;11.75;;
26062;SDS011;13837;48.562;12.108;2023-09-18T04:58:51;13.55;;;12.23;;
26062;SDS011;13837;48.562;12.108;2023-09-18T05:01:17;12.45;;;11.23;;
26062;SDS011;13837;48.562;12.108;2023-09-18T05:03:44;13.10;;;11.80;;
26062;SDS011;13837;48.562;12.108;2023-09-18T05:06:10;14.05;;;12.65;;
26062;SDS011;13837;48.562;12.108;2023-09-18T05:08:35;14.88;;;12.75;;
26062;SDS011;13837;48.562;12.108;2023-09-18T05:11:01;13.57;;;12.25;;
26062;SDS011;13837;48.562;12.108;2023-09-18T05:13:27;14.43;;;12.95;;
26062;SDS011;13837;48.562;12.108;2023-09-18T05:15:53;12.73;;;11.52;;
26062;SDS011;13837;48.562;12.108;2023-09-18T05:18:18;13.25;;;11.98;;
26062;SDS011;13837;48.562;12.108;2023-09-18T05:20:44;13.75;;;12.45;;
26062;SDS011;13837;48.562;12.108;2023-09-18T05:23:11;14.32;;;12.50;;
26062;SDS011;13837;48.562;12.108;2023-09-18T05:25:37;14.20;;;12.18;;
26062;SDS011;13837;48.562;12.108;2023-09-18T05:28:03;13.05;;;11.82;;
26062;SDS011;13837;48.562;12.108;2023-09-18T05:30:31;13.70;;;12.30;;
26062;SDS011;13837;48.562;12.108;2023-09-18T05:32:59;12.75;;;11.55;;
26062;SDS011;13837;48.562;12.108;2023-09-18T05:35:33;13.52;;;12.13;;
26062;SDS011;13837;48.562;12.108;2023-09-18T05:38:05;14.63;;;13.13;;
26062;SDS011;13837;48.562;12.108;2023-09-18T05:40:30;14.50;;;12.98;;
26062;SDS011;13837;48.562;12.108;2023-09-18T05:42:57;14.88;;;13.27;;
26062;SDS011;13837;48.562;12.108;2023-09-18T05:45:23;15.15;;;13.68;;
26062;SDS011;13837;48.562;12.108;2023-09-18T05:47:49;14.55;;;12.77;;
26062;SDS011;13837;48.562;12.108;2023-09-18T05:50:16;15.35;;;12.82;;
26062;SDS011;13837;48.562;12.108;2023-09-18T05:52:44;13.50;;;12.18;;
26062;SDS011;13837;48.562;12.108;2023-09-18T05:55:11;13.38;;;12.07;;
26062;SDS011;13837;48.562;12.108;2023-09-18T05:57:38;13.00;;;11.55;;
26062;SDS011;13837;48.562;12.108;2023-09-18T06:00:04;13.48;;;12.10;;
26062;SDS011;13837;48.562;12.108;2023-09-18T06:02:37;11.27;;;10.10;;
26062;SDS011;13837;48.562;12.108;2023-09-18T06:05:02;11.98;;;10.77;;
26062;SDS011;13837;48.562;12.108;2023-09-18T06:07:29;10.73;;;9.63;;
26062;SDS011;13837;48.562;12.108;2023-09-18T06:09:55;9.48;;;8.48;;
26062;SDS011;13837;48.562;12.108;2023-09-18T06:12:22;11.68;;;9.32;;
26062;SDS011;13837;48.562;12.108;2023-09-18T06:14:49;10.23;;;8.70;;
26062;SDS011;13837;48.562;12.108;2023-09-18T06:17:15;11.30;;;9.65;;
26062;SDS011;13837;48.562;12.108;2023-09-18T06:19:42;10.05;;;9.05;;
26062;SDS011;13837;48.562;12.108;2023-09-18T06:22:08;10.25;;;9.30;;
26062;SDS011;13837;48.562;12.108;2023-09-18T06:24:34;12.30;;;9.43;;
26062;SDS011;13837;48.562;12.108;2023-09-18T06:27:00;10.20;;;9.20;;
26062;SDS011;13837;48.562;12.108;2023-09-18T06:29:26;10.50;;;9.30;;
26062;SDS011;13837;48.562;12.108;2023-09-18T06:31:51;9.75;;;8.75;;
26062;SDS011;13837;48.562;12.108;2023-09-18T06:34:17;10.23;;;9.07;;
26062;SDS011;13837;48.562;12.108;2023-09-18T06:36:43;12.57;;;8.80;;
26062;SDS011;13837;48.562;12.108;2023-09-18T06:39:09;13.05;;;9.73;;
26062;SDS011;13837;48.562;12.108;2023-09-18T06:41:34;10.32;;;9.02;;
26062;SDS011;13837;48.562;12.108;2023-09-18T06:44:00;10.25;;;8.65;;
26062;SDS011;13837;48.562;12.108;2023-09-18T06:46:31;11.68;;;9.77;;
26062;SDS011;13837;48.562;12.108;2023-09-18T06:48:58;11.05;;;9.98;;
26062;SDS011;13837;48.562;12.108;2023-09-18T06:51:25;9.57;;;8.57;;
26062;SDS011;13837;48.562;12.108;2023-09-18T06:53:54;12.40;;;9.45;;
26062;SDS011;13837;48.562;12.108;2023-09-18T06:56:22;9.77;;;8.45;;
26062;SDS011;13837;48.562;12.108;2023-09-18T06:58:48;9.45;;;8.55;;
26062;SDS011;13837;48.562;12.108;2023-09-18T07:01:16;9.75;;;8.75;;
26062;SDS011;13837;48.562;12.108;2023-09-18T07:03:44;9.88;;;8.98;;
26062;SDS011;13837;48.562;12.108;2023-09-18T07:06:12;9.70;;;8.18;;
26062;SDS011;13837;48.562;12.108;2023-09-18T07:11:09;9.95;;;8.77;;
26062;SDS011;13837;48.562;12.108;2023-09-18T07:13:37;11.98;;;9.05;;
26062;SDS011;13837;48.562;12.108;2023-09-18T07:16:06;16.10;;;8.90;;
26062;SDS011;13837;48.562;12.108;2023-09-18T07:18:32;9.63;;;8.73;;
26062;SDS011;13837;48.562;12.108;2023-09-18T07:21:03;9.50;;;8.55;;
26062;SDS011;13837;48.562;12.108;2023-09-18T07:23:34;10.15;;;8.45;;
26062;SDS011;13837;48.562;12.108;2023-09-18T07:26:05;10.00;;;9.00;;
26062;SDS011;13837;48.562;12.108;2023-09-18T07:28:36;10.05;;;9.15;;
26062;SDS011;13837;48.562;12.108;2023-09-18T07:31:09;10.90;;;8.75;;
26062;SDS011;13837;48.562;12.108;2023-09-18T07:33:47;11.50;;;8.98;;
26062;SDS011;13837;48.562;12.108;2023-09-18T07:36:25;13.10;;;9.15;;
26062;SDS011;13837;48.562;12.108;2023-09-18T07:38:59;11.23;;;9.35;;
26062;SDS011;13837;48.562;12.108;2023-09-18T07:41:25;13.20;;;9.80;;
26062;SDS011;13837;48.562;12.108;2023-09-18T07:43:54;8.95;;;8.10;;
26062;SDS011;13837;48.562;12.108;2023-09-18T07:46:26;9.77;;;8.77;;
26062;SDS011;13837;48.562;12.108;2023-09-18T07:48:52;12.20;;;7.97;;
26062;SDS011;13837;48.562;12.108;2023-09-18T07:51:17;8.18;;;7.38;;
26062;SDS011;13837;48.562;12.108;2023-09-18T07:53:46;8.70;;;7.85;;
26062;SDS011;13837;48.562;12.108;2023-09-18T07:56:12;8.32;;;7.40;;
26062;SDS011;13837;48.562;12.108;2023-09-18T07:58:40;7.72;;;6.93;;
26062;SDS011;13837;48.562;12.108;2023-09-18T08:01:06;6.78;;;6.25;;
26062;SDS011;13837;48.562;12.108;2023-09-18T08:03:34;8.13;;;7.05;;
26062;SDS011;13837;48.562;12.108;2023-09-18T08:06:00;6.50;;;5.97;;
26062;SDS011;13837;48.562;12.108;2023-09-18T08:08:26;6.53;;;6.03;;
26062;SDS011;13837;48.562;12.108;2023-09-18T08:10:58;8.30;;;6.65;;
26062;SDS011;13837;48.562;12.108;2023-09-18T08:13:36;8.18;;;6.90;;
26062;SDS011;13837;48.562;12.108;2023-09-18T08:16:05;10.35;;;5.97;;
26062;SDS011;13837;48.562;12.108;2023-09-18T08:18:48;9.07;;;6.22;;
26062;SDS011;13837;48.562;12.108;2023-09-18T08:21:30;6.75;;;6.07;;
26062;SDS011;13837;48.562;12.108;2023-09-18T08:23:59;6.07;;;5.47;;
26062;SDS011;13837;48.562;12.108;2023-09-18T08:26:25;9.63;;;6.32;;
26062;SDS011;13837;48.562;12.108;2023-09-18T08:28:55;7.50;;;5.72;;
26062;SDS011;13837;48.562;12.108;2023-09-18T08:33:48;9.88;;;5.80;;
26062;SDS011;13837;48.562;12.108;2023-09-18T08:36:16;7.50;;;6.20;;
26062;SDS011;13837;48.562;12.108;2023-09-18T08:38:42;9.73;;;5.50;;
26062;SDS011;13837;48.562;12.108;2023-09-18T08:41:12;5.80;;;5.20;;
26062;SDS011;13837;48.562;12.108;2023-09-18T08:43:45;5.57;;;5.07;;
26062;SDS011;13837;48.562;12.108;2023-09-18T08:46:14;8.93;;;4.90;;
26062;SDS011;13837;48.562;12.108;2023-09-18T08:48:40;7.63;;;4.75;;
26062;SDS011;13837;48.562;12.108;2023-09-18T08:51:09;5.05;;;4.65;;
26062;SDS011;13837;48.562;12.108;2023-09-18T08:53:45;5.07;;;4.68;;
26062;SDS011;13837;48.562;12.108;2023-09-18T08:56:12;7.72;;;5.07;;
26062;SDS011;13837;48.562;12.108;2023-09-18T08:58:43;6.40;;;5.43;;
26062;SDS011;13837;48.562;12.108;2023-09-18T09:01:12;5.65;;;5.03;;
26062;SDS011;13837;48.562;12.108;2023-09-18T09:03:43;7.75;;;5.22;;
26062;SDS011;13837;48.562;12.108;2023-09-18T09:06:12;12.30;;;5.68;;
26062;SDS011;13837;48.562;12.108;2023-09-18T09:08:38;7.15;;;5.10;;
26062;SDS011;13837;48.562;12.108;2023-09-18T09:11:07;7.90;;;6.63;;
26062;SDS011;13837;48.562;12.108;2023-09-18T09:13:38;7.78;;;5.32;;
26062;SDS011;13837;48.562;12.108;2023-09-18T09:16:07;6.05;;;5.18;;
26062;SDS011;13837;48.562;12.108;2023-09-18T09:18:48;8.60;;;5.30;;
26062;SDS011;13837;48.562;12.108;2023-09-18T09:21:24;8.30;;;5.10;;
26062;SDS011;13837;48.562;12.108;2023-09-18T09:24:15;10.10;;;6.35;;
26062;SDS011;13837;48.562;12.108;2023-09-18T09:26:41;8.27;;;5.72;;
26062;SDS011;13837;48.562;12.108;2023-09-18T09:29:18;9.88;;;5.65;;
26062;SDS011;13837;48.562;12.108;2023-09-18T09:31:49;6.53;;;4.95;;
26062;SDS011;13837;48.562;12.108;2023-09-18T09:34:27;6.13;;;5.50;;
26062;SDS011;13837;48.562;12.108;2023-09-18T09:36:57;10.55;;;5.32;;
26062;SDS011;13837;48.562;12.108;2023-09-18T09:39:28;7.88;;;4.75;;
26062;SDS011;13837;48.562;12.108;2023-09-18T09:42:03;8.00;;;5.30;;
26062;SDS011;13837;48.562;12.108;2023-09-18T09:44:34;8.90;;;5.30;;
26062;SDS011;13837;48.562;12.108;2023-09-18T09:47:05;8.10;;;5.25;;
26062;SDS011;13837;48.562;12.108;2023-09-18T09:49:34;10.05;;;5.53;;
26062;SDS011;13837;48.562;12.108;2023-09-18T09:52:17;7.30;;;5.13;;
26062;SDS011;13837;48.562;12.108;2023-09-18T09:54:46;6.03;;;5.05;;
26062;SDS011;13837;48.562;12.108;2023-09-18T09:57:12;12.18;;;5.35;;
26062;SDS011;13837;48.562;12.108;2023-09-18T09:59:38;8.82;;;5.38;;
26062;SDS011;13837;48.562;12.108;2023-09-18T10:02:05;7.13;;;5.13;;
26062;SDS011;13837;48.562;12.108;2023-09-18T10:04:34;10.30;;;5.18;;
26062;SDS011;13837;48.562;12.108;2023-09-18T10:07:08;10.07;;;5.22;;
26062;SDS011;13837;48.562;12.108;2023-09-18T10:09:35;11.18;;;4.55;;
26062;SDS011;13837;48.562;12.108;2023-09-18T10:12:05;8.18;;;5.05;;
26062;SDS011;13837;48.562;12.108;2023-09-18T10:14:36;10.98;;;5.20;;
26062;SDS011;13837;48.562;12.108;2023-09-18T10:17:16;6.82;;;4.72;;
26062;SDS011;13837;48.562;12.108;2023-09-18T10:24:53;11.95;;;4.85;;
26062;SDS011;13837;48.562;12.108;2023-09-18T10:27:25;12.63;;;5.00;;
26062;SDS011;13837;48.562;12.108;2023-09-18T10:29:53;13.65;;;4.93;;
26062;SDS011;13837;48.562;12.108;2023-09-18T10:32:20;7.75;;;3.95;;
26062;SDS011;13837;48.562;12.108;2023-09-18T10:34:47;10.80;;;4.47;;
26062;SDS011;13837;48.562;12.108;2023-09-18T10:37:13;8.15;;;4.07;;
26062;SDS011;13837;48.562;12.108;2023-09-18T10:39:41;12.70;;;4.95;;
26062;SDS011;13837;48.562;12.108;2023-09-18T10:42:09;10.18;;;4.55;;
26062;SDS011;13837;48.562;12.108;2023-09-18T10:44:35;13.88;;;4.38;;
26062;SDS011;13837;48.562;12.108;2023-09-18T10:47:05;8.77;;;4.35;;
26062;SDS011;13837;48.562;12.108;2023-09-18T10:49:33;7.83;;;4.13;;
26062;SDS011;13837;48.562;12.108;2023-09-18T10:52:00;12.63;;;4.50;;
26062;SDS011;13837;48.562;12.108;2023-09-18T10:54:26;8.45;;;4.38;;
26062;SDS011;13837;48.562;12.108;2023-09-18T10:56:55;7.40;;;4.93;;
26062;SDS011;13837;48.562;12.108;2023-09-18T10:59:22;11.30;;;4.50;;
26062;SDS011;13837;48.562;12.108;2023-09-18T11:01:48;9.65;;;4.63;;
26062;SDS011;13837;48.562;12.108;2023-09-18T11:04:17;9.40;;;4.30;;
26062;SDS011;13837;48.562;12.108;2023-09-18T11:11:53;7.57;;;2.83;;
26062;SDS011;13837;48.562;12.108;2023-09-18T11:17:28;9.55;;;3.53;;
26062;SDS011;13837;48.562;12.108;2023-09-18T11:22:58;9.65;;;4.47;;
26062;SDS011;13837;48.562;12.108;2023-09-18T11:25:36;6.05;;;3.38;;
26062;SDS011;13837;48.562;12.108;2023-09-18T11:28:06;9.63;;;3.60;;
26062;SDS011;13837;48.562;12.108;2023-09-18T11:30:34;9.15;;;3.75;;
26062;SDS011;13837;48.562;12.108;2023-09-18T11:33:04;9.23;;;4.13;;
26062;SDS011;13837;48.562;12.108;2023-09-18T11:35:37;7.82;;;4.32;;
26062;SDS011;13837;48.562;12.108;2023-09-18T11:38:09;7.63;;;4.18;;
26062;SDS011;13837;48.562;12.108;2023-09-18T11:40:38;7.50;;;3.78;;
26062;SDS011;13837;48.562;12.108;2023-09-18T11:43:25;6.90;;;3.67;;
26062;SDS011;13837;48.562;12.108;2023-09-18T11:46:02;7.88;;;3.85;;
26062;SDS011;13837;48.562;12.108;2023-09-18T11:48:29;6.72;;;4.25;;
26062;SDS011;13837;48.562;12.108;2023-09-18T11:51:02;8.65;;;4.55;;
26062;SDS011;13837;48.562;12.108;2023-09-18T11:53:33;7.75;;;4.22;;
26062;SDS011;13837;48.562;12.108;2023-09-18T11:56:26;9.07;;;4.47;;
26062;SDS011;13837;48.562;12.108;2023-09-18T11:58:55;8.90;;;4.50;;
26062;SDS011;13837;48.562;12.108;2023-09-18T12:01:21;10.23;;;4.50;;
26062;SDS011;13837;48.562;12.108;2023-09-18T12:03:54;5.22;;;4.22;;
26062;SDS011;13837;48.562;12.108;2023-09-18T12:06:20;11.18;;;4.32;;
26062;SDS011;13837;48.562;12.108;2023-09-18T12:08:46;8.18;;;4.55;;
26062;SDS011;13837;48.562;12.108;2023-09-18T12:11:16;7.55;;;4.10;;
26062;SDS011;13837;48.562;12.108;2023-09-18T12:13:46;8.32;;;4.10;;
26062;SDS011;13837;48.562;12.108;2023-09-18T12:16:20;7.15;;;3.90;;
26062;SDS011;13837;48.562;12.108;2023-09-18T12:18:57;8.77;;;3.85;;
26062;SDS011;13837;48.562;12.108;2023-09-18T12:21:24;6.10;;;3.80;;
26062;SDS011;13837;48.562;12.108;2023-09-18T12:24:17;7.70;;;3.40;;
26062;SDS011;13837;48.562;12.108;2023-09-18T12:27:09;12.63;;;3.85;;
26062;SDS011;13837;48.562;12.108;2023-09-18T12:29:35;8.35;;;3.88;;
26062;SDS011;13837;48.562;12.108;2023-09-18T12:32:03;8.20;;;3.80;;
26062;SDS011;13837;48.562;12.108;2023-09-18T12:34:35;8.52;;;3.70;;
26062;SDS011;13837;48.562;12.108;2023-09-18T12:37:04;8.93;;;3.67;;
26062;SDS011;13837;48.562;12.108;2023-09-18T12:39:35;10.55;;;3.72;;
26062;SDS011;13837;48.562;12.108;2023-09-18T12:42:01;5.82;;;3.50;;
26062;SDS011;13837;48.562;12.108;2023-09-18T12:44:28;12.32;;;4.60;;
26062;SDS011;13837;48.562;12.108;2023-09-18T12:46:54;5.18;;;3.60;;
26062;SDS011;13837;48.562;12.108;2023-09-18T12:49:20;6.70;;;3.03;;
26062;SDS011;13837;48.562;12.108;2023-09-18T12:52:03;6.25;;;3.17;;
26062;SDS011;13837;48.562;12.108;2023-09-18T12:54:41;6.63;;;2.72;;
26062;SDS011;13837;48.562;12.108;2023-09-18T12:57:10;11.38;;;3.30;;
26062;SDS011;13837;48.562;12.108;2023-09-18T12:59:40;7.57;;;2.90;;
26062;SDS011;13837;48.562;12.108;2023-09-18T13:02:07;11.15;;;2.70;;
26062;SDS011;13837;48.562;12.108;2023-09-18T13:04:40;6.72;;;2.60;;
26062;SDS011;13837;48.562;12.108;2023-09-18T13:10:07;7.20;;;3.10;;
26062;SDS011;13837;48.562;12.108;2023-09-18T13:16:35;6.40;;;3.25;;
26062;SDS011;13837;48.562;12.108;2023-09-18T13:19:17;7.95;;;2.83;;
26062;SDS011;13837;48.562;12.108;2023-09-18T13:25:28;7.95;;;2.80;;
26062;SDS011;13837;48.562;12.108;2023-09-18T13:31:13;10.02;;;3.65;;
26062;SDS011;13837;48.562;12.108;2023-09-18T13:34:07;3.05;;;2.30;;
26062;SDS011;13837;48.562;12.108;2023-09-18T13:37:02;4.03;;;2.40;;
26062;SDS011;13837;48.562;12.108;2023-09-18T13:40:07;4.53;;;2.42;;
26062;SDS011;13837;48.562;12.108;2023-09-18T13:42:48;3.58;;;3.15;;
26062;SDS011;13837;48.562;12.108;2023-09-18T13:46:03;7.07;;;2.97;;
26062;SDS011;13837;48.562;12.108;2023-09-18T13:48:46;10.93;;;3.88;;
26062;SDS011;13837;48.562;12.108;2023-09-18T13:51:28;6.03;;;2.95;;
26062;SDS011;13837;48.562;12.108;2023-09-18T13:54:21;3.78;;;3.33;;
26062;SDS011;13837;48.562;12.108;2023-09-18T13:56:50;4.22;;;3.47;;
26062;SDS011;13837;48.562;12.108;2023-09-18T13:59:25;7.25;;;3.38;;
26062;SDS011;13837;48.562;12.108;2023-09-18T14:02:22;5.72;;;3.28;;
26062;SDS011;13837;48.562;12.108;2023-09-18T14:09:03;3.50;;;3.20;;
26062;SDS011;13837;48.562;12.108;2023-09-18T14:11:49;3.72;;;3.40;;
26062;SDS011;13837;48.562;12.108;2023-09-18T14:21:00;4.20;;;3.10;;
26062;SDS011;13837;48.562;12.108;2023-09-18T14:23:30;5.10;;;3.75;;
26062;SDS011;13837;48.562;12.108;2023-09-18T14:26:59;4.43;;;3.60;;
26062;SDS011;13837;48.562;12.108;2023-09-18T14:29:39;9.43;;;3.70;;
26062;SDS011;13837;48.562;12.108;2023-09-18T14:32:06;6.40;;;3.72;;
26062;SDS011;13837;48.562;12.108;2023-09-18T14:34:34;6.32;;;4.20;;
26062;SDS011;13837;48.562;12.108;2023-09-18T14:37:01;4.13;;;3.67;;
26062;SDS011;13837;48.562;12.108;2023-09-18T14:39:31;4.03;;;3.78;;
26062;SDS011;13837;48.562;12.108;2023-09-18T14:42:00;4.25;;;3.85;;
26062;SDS011;13837;48.562;12.108;2023-09-18T14:44:26;4.90;;;3.70;;
26062;SDS011;13837;48.562;12.108;2023-09-18T14:47:02;5.45;;;4.00;;
26062;SDS011;13837;48.562;12.108;2023-09-18T14:49:55;3.65;;;3.35;;
26062;SDS011;13837;48.562;12.108;2023-09-18T14:52:32;4.18;;;3.40;;
26062;SDS011;13837;48.562;12.108;2023-09-18T14:59:40;3.65;;;3.45;;
26062;SDS011;13837;48.562;12.108;2023-09-18T15:02:42;3.83;;;3.63;;
26062;SDS011;13837;48.562;12.108;2023-09-18T15:08:27;3.40;;;3.17;;
26062;SDS011;13837;48.562;12.108;2023-09-18T15:10:53;3.85;;;3.60;;
26062;SDS011;13837;48.562;12.108;2023-09-18T15:14:00;3.20;;;3.00;;
26062;SDS011;13837;48.562;12.108;2023-09-18T15:16:27;3.33;;;3.13;;
26062;SDS011;13837;48.562;12.108;2023-09-18T15:18:55;3.65;;;3.22;;
26062;SDS011;13837;48.562;12.108;2023-09-18T15:21:25;4.18;;;3.78;;
26062;SDS011;13837;48.562;12.108;2023-09-18T15:23:51;4.40;;;4.00;;
26062;SDS011;13837;48.562;12.108;2023-09-18T15:26:17;3.15;;;2.97;;
26062;SDS011;13837;48.562;12.108;2023-09-18T15:28:52;3.75;;;3.28;;
26062;SDS011;13837;48.562;12.108;2023-09-18T15:43:56;4.38;;;3.63;;